sensor_id;sensor_type;location;lat;lon;timestamp;P1;durP1;ratioP1;P2;durP2;ratioP2
26822;SDS011;14852;51.910;8.878;2023-03-01T00:01:59;7.97;;;4.82;;
26822;SDS011;14852;51.910;8.878;2023-03-01T00:04:24;7.40;;;6.20;;
26822;SDS011;14852;51.910;8.878;2023-03-01T00:06:50;7.57;;;5.18;;
26822;SDS011;14852;51.910;8.878;2023-03-01T00:09:16;6.22;;;4.88;;
26822;SDS011;14852;51.910;8.878;2023-03-01T00:11:42;6.38;;;5.30;;
26822;SDS011;14852;51.910;8.878;2023-03-01T00:14:08;7.00;;;4.97;;
26822;SDS011;14852;51.910;8.878;2023-03-01T00:16:38;7.45;;;5.13;;
26822;SDS011;14852;51.910;8.878;2023-03-01T00:19:11;7.28;;;5.05;;
26822;SDS011;14852;51.910;8.878;2023-03-01T00:21:42;7.57;;;4.38;;
26822;SDS011;14852;51.910;8.878;2023-03-01T00:24:08;6.57;;;4.80;;
26822;SDS011;14852;51.910;8.878;2023-03-01T00:26:35;7.65;;;4.57;;
26822;SDS011;14852;51.910;8.878;2023-03-01T00:29:01;8.13;;;4.25;;
26822;SDS011;14852;51.910;8.878;2023-03-01T00:31:28;6.93;;;4.80;;
26822;SDS011;14852;51.910;8.878;2023-03-01T00:33:56;6.85;;;4.38;;
26822;SDS011;14852;51.910;8.878;2023-03-01T00:36:27;6.50;;;4.93;;
26822;SDS011;14852;51.910;8.878;2023-03-01T00:38:56;7.10;;;5.20;;
26822;SDS011;14852;51.910;8.878;2023-03-01T00:41:23;6.40;;;5.03;;
26822;SDS011;14852;51.910;8.878;2023-03-01T00:43:51;8.43;;;5.47;;
26822;SDS011;14852;51.910;8.878;2023-03-01T00:46:18;7.15;;;4.57;;
26822;SDS011;14852;51.910;8.878;2023-03-01T00:48:47;7.15;;;5.15;;
26822;SDS011;14852;51.910;8.878;2023-03-01T00:51:15;6.07;;;4.97;;
26822;SDS011;14852;51.910;8.878;2023-03-01T00:53:53;8.95;;;5.00;;
26822;SDS011;14852;51.910;8.878;2023-03-01T00:56:21;7.20;;;4.70;;
26822;SDS011;14852;51.910;8.878;2023-03-01T00:58:48;7.93;;;3.90;;
26822;SDS011;14852;51.910;8.878;2023-03-01T01:01:15;6.38;;;4.28;;
26822;SDS011;14852;51.910;8.878;2023-03-01T01:03:49;7.38;;;4.40;;
26822;SDS011;14852;51.910;8.878;2023-03-01T01:06:28;6.40;;;4.55;;
26822;SDS011;14852;51.910;8.878;2023-03-01T01:08:58;8.82;;;5.07;;
26822;SDS011;14852;51.910;8.878;2023-03-01T01:11:25;6.82;;;4.70;;
26822;SDS011;14852;51.910;8.878;2023-03-01T01:13:54;5.82;;;3.92;;
26822;SDS011;14852;51.910;8.878;2023-03-01T01:16:21;9.80;;;4.97;;
26822;SDS011;14852;51.910;8.878;2023-03-01T01:18:49;7.57;;;4.50;;
26822;SDS011;14852;51.910;8.878;2023-03-01T01:21:17;5.90;;;4.28;;
26822;SDS011;14852;51.910;8.878;2023-03-01T01:23:45;7.82;;;4.63;;
26822;SDS011;14852;51.910;8.878;2023-03-01T01:26:13;5.93;;;4.88;;
26822;SDS011;14852;51.910;8.878;2023-03-01T01:28:43;6.88;;;4.47;;
26822;SDS011;14852;51.910;8.878;2023-03-01T01:31:09;5.45;;;4.00;;
26822;SDS011;14852;51.910;8.878;2023-03-01T01:33:35;5.35;;;4.70;;
26822;SDS011;14852;51.910;8.878;2023-03-01T01:36:02;5.45;;;3.80;;
26822;SDS011;14852;51.910;8.878;2023-03-01T01:38:30;5.68;;;4.95;;
26822;SDS011;14852;51.910;8.878;2023-03-01T01:40:56;5.45;;;3.80;;
26822;SDS011;14852;51.910;8.878;2023-03-01T01:43:33;7.18;;;4.47;;
26822;SDS011;14852;51.910;8.878;2023-03-01T01:46:01;6.00;;;3.85;;
26822;SDS011;14852;51.910;8.878;2023-03-01T01:49:03;5.70;;;3.80;;
26822;SDS011;14852;51.910;8.878;2023-03-01T01:51:42;6.80;;;4.30;;
26822;SDS011;14852;51.910;8.878;2023-03-01T01:54:17;6.00;;;4.30;;
26822;SDS011;14852;51.910;8.878;2023-03-01T01:56:55;8.95;;;4.82;;
26822;SDS011;14852;51.910;8.878;2023-03-01T01:59:26;5.68;;;4.00;;
26822;SDS011;14852;51.910;8.878;2023-03-01T02:01:54;4.68;;;3.28;;
26822;SDS011;14852;51.910;8.878;2023-03-01T02:04:22;8.25;;;4.28;;
26822;SDS011;14852;51.910;8.878;2023-03-01T02:06:53;5.47;;;3.90;;
26822;SDS011;14852;51.910;8.878;2023-03-01T02:09:30;6.57;;;4.32;;
26822;SDS011;14852;51.910;8.878;2023-03-01T02:11:57;5.47;;;3.88;;
26822;SDS011;14852;51.910;8.878;2023-03-01T02:14:23;6.18;;;4.00;;
26822;SDS011;14852;51.910;8.878;2023-03-01T02:16:49;6.10;;;3.58;;
26822;SDS011;14852;51.910;8.878;2023-03-01T02:19:26;6.75;;;4.15;;
26822;SDS011;14852;51.910;8.878;2023-03-01T02:22:37;6.63;;;3.85;;
26822;SDS011;14852;51.910;8.878;2023-03-01T02:30:38;6.38;;;3.63;;
26822;SDS011;14852;51.910;8.878;2023-03-01T02:33:26;5.68;;;4.20;;
26822;SDS011;14852;51.910;8.878;2023-03-01T02:35:52;5.90;;;4.45;;
26822;SDS011;14852;51.910;8.878;2023-03-01T02:38:21;6.00;;;3.97;;
26822;SDS011;14852;51.910;8.878;2023-03-01T02:40:48;6.72;;;4.00;;
26822;SDS011;14852;51.910;8.878;2023-03-01T02:43:16;4.47;;;3.28;;
26822;SDS011;14852;51.910;8.878;2023-03-01T02:45:49;5.95;;;4.25;;
26822;SDS011;14852;51.910;8.878;2023-03-01T02:48:18;6.93;;;3.45;;
26822;SDS011;14852;51.910;8.878;2023-03-01T02:56:53;4.93;;;3.53;;
26822;SDS011;14852;51.910;8.878;2023-03-01T02:59:22;7.03;;;4.20;;
26822;SDS011;14852;51.910;8.878;2023-03-01T03:01:54;5.45;;;3.33;;
26822;SDS011;14852;51.910;8.878;2023-03-01T03:04:20;5.85;;;4.25;;
26822;SDS011;14852;51.910;8.878;2023-03-01T03:06:48;6.50;;;4.05;;
26822;SDS011;14852;51.910;8.878;2023-03-01T03:09:17;8.68;;;4.78;;
26822;SDS011;14852;51.910;8.878;2023-03-01T03:11:44;6.97;;;4.00;;
26822;SDS011;14852;51.910;8.878;2023-03-01T03:14:11;5.80;;;4.13;;
26822;SDS011;14852;51.910;8.878;2023-03-01T03:16:43;7.25;;;4.50;;
26822;SDS011;14852;51.910;8.878;2023-03-01T03:19:12;6.05;;;3.58;;
26822;SDS011;14852;51.910;8.878;2023-03-01T03:21:39;4.72;;;3.63;;
26822;SDS011;14852;51.910;8.878;2023-03-01T03:24:05;5.05;;;3.50;;
26822;SDS011;14852;51.910;8.878;2023-03-01T03:26:31;6.40;;;4.63;;
26822;SDS011;14852;51.910;8.878;2023-03-01T03:28:57;5.68;;;3.58;;
26822;SDS011;14852;51.910;8.878;2023-03-01T03:31:23;5.68;;;3.75;;
26822;SDS011;14852;51.910;8.878;2023-03-01T03:33:49;5.30;;;3.53;;
26822;SDS011;14852;51.910;8.878;2023-03-01T03:36:16;6.22;;;4.40;;
26822;SDS011;14852;51.910;8.878;2023-03-01T03:38:44;4.70;;;3.15;;
26822;SDS011;14852;51.910;8.878;2023-03-01T03:41:11;5.53;;;3.80;;
26822;SDS011;14852;51.910;8.878;2023-03-01T03:43:38;5.80;;;4.05;;
26822;SDS011;14852;51.910;8.878;2023-03-01T03:46:07;4.95;;;3.60;;
26822;SDS011;14852;51.910;8.878;2023-03-01T03:48:36;6.22;;;4.70;;
26822;SDS011;14852;51.910;8.878;2023-03-01T03:51:12;4.90;;;3.60;;
26822;SDS011;14852;51.910;8.878;2023-03-01T03:53:40;6.53;;;4.88;;
26822;SDS011;14852;51.910;8.878;2023-03-01T03:56:06;6.32;;;4.10;;
26822;SDS011;14852;51.910;8.878;2023-03-01T03:58:32;4.75;;;3.45;;
26822;SDS011;14852;51.910;8.878;2023-03-01T04:00:58;4.53;;;3.58;;
26822;SDS011;14852;51.910;8.878;2023-03-01T04:03:26;5.65;;;3.50;;
26822;SDS011;14852;51.910;8.878;2023-03-01T04:05:54;5.00;;;3.60;;
26822;SDS011;14852;51.910;8.878;2023-03-01T04:08:22;5.38;;;3.30;;
26822;SDS011;14852;51.910;8.878;2023-03-01T04:10:50;7.70;;;4.07;;
26822;SDS011;14852;51.910;8.878;2023-03-01T04:13:22;7.78;;;4.72;;
26822;SDS011;14852;51.910;8.878;2023-03-01T04:15:50;4.63;;;3.47;;
26822;SDS011;14852;51.910;8.878;2023-03-01T04:18:18;7.07;;;4.45;;
26822;SDS011;14852;51.910;8.878;2023-03-01T04:20:48;6.47;;;3.70;;
26822;SDS011;14852;51.910;8.878;2023-03-01T04:23:18;5.97;;;4.40;;
26822;SDS011;14852;51.910;8.878;2023-03-01T04:25:46;6.70;;;4.53;;
26822;SDS011;14852;51.910;8.878;2023-03-01T04:28:24;7.00;;;4.22;;
26822;SDS011;14852;51.910;8.878;2023-03-01T04:30:56;6.32;;;4.35;;
26822;SDS011;14852;51.910;8.878;2023-03-01T04:33:24;5.45;;;4.18;;
26822;SDS011;14852;51.910;8.878;2023-03-01T04:35:50;5.60;;;4.28;;
26822;SDS011;14852;51.910;8.878;2023-03-01T04:38:17;5.28;;;4.05;;
26822;SDS011;14852;51.910;8.878;2023-03-01T04:40:44;6.22;;;3.85;;
26822;SDS011;14852;51.910;8.878;2023-03-01T04:43:10;5.85;;;4.63;;
26822;SDS011;14852;51.910;8.878;2023-03-01T04:45:39;6.45;;;4.25;;
26822;SDS011;14852;51.910;8.878;2023-03-01T04:48:05;5.65;;;4.05;;
26822;SDS011;14852;51.910;8.878;2023-03-01T04:50:31;5.93;;;4.50;;
26822;SDS011;14852;51.910;8.878;2023-03-01T04:52:57;7.75;;;4.57;;
26822;SDS011;14852;51.910;8.878;2023-03-01T04:55:24;5.07;;;3.78;;
26822;SDS011;14852;51.910;8.878;2023-03-01T04:57:51;7.00;;;5.22;;
26822;SDS011;14852;51.910;8.878;2023-03-01T05:00:18;7.40;;;3.92;;
26822;SDS011;14852;51.910;8.878;2023-03-01T05:02:51;7.45;;;4.22;;
26822;SDS011;14852;51.910;8.878;2023-03-01T05:05:23;4.55;;;3.65;;
26822;SDS011;14852;51.910;8.878;2023-03-01T05:07:51;6.97;;;4.25;;
26822;SDS011;14852;51.910;8.878;2023-03-01T05:10:19;6.10;;;3.92;;
26822;SDS011;14852;51.910;8.878;2023-03-01T05:12:47;6.72;;;4.07;;
26822;SDS011;14852;51.910;8.878;2023-03-01T05:15:13;6.22;;;4.20;;
26822;SDS011;14852;51.910;8.878;2023-03-01T05:17:39;6.13;;;4.32;;
26822;SDS011;14852;51.910;8.878;2023-03-01T05:20:05;7.45;;;4.07;;
26822;SDS011;14852;51.910;8.878;2023-03-01T05:22:34;8.10;;;4.35;;
26822;SDS011;14852;51.910;8.878;2023-03-01T05:25:00;5.43;;;3.50;;
26822;SDS011;14852;51.910;8.878;2023-03-01T05:27:27;6.60;;;3.95;;
26822;SDS011;14852;51.910;8.878;2023-03-01T05:29:52;7.03;;;4.20;;
26822;SDS011;14852;51.910;8.878;2023-03-01T05:32:18;7.03;;;3.85;;
26822;SDS011;14852;51.910;8.878;2023-03-01T05:34:44;6.05;;;3.75;;
26822;SDS011;14852;51.910;8.878;2023-03-01T05:37:11;7.22;;;3.78;;
26822;SDS011;14852;51.910;8.878;2023-03-01T05:39:38;6.15;;;4.10;;
26822;SDS011;14852;51.910;8.878;2023-03-01T05:42:04;7.78;;;4.28;;
26822;SDS011;14852;51.910;8.878;2023-03-01T05:44:30;8.25;;;4.38;;
26822;SDS011;14852;51.910;8.878;2023-03-01T05:46:56;7.25;;;4.25;;
26822;SDS011;14852;51.910;8.878;2023-03-01T05:49:22;6.65;;;4.97;;
26822;SDS011;14852;51.910;8.878;2023-03-01T05:51:52;6.60;;;4.00;;
26822;SDS011;14852;51.910;8.878;2023-03-01T05:54:21;7.60;;;5.15;;
26822;SDS011;14852;51.910;8.878;2023-03-01T05:56:47;6.40;;;4.72;;
26822;SDS011;14852;51.910;8.878;2023-03-01T05:59:13;7.82;;;4.43;;
26822;SDS011;14852;51.910;8.878;2023-03-01T06:01:41;6.85;;;5.47;;
26822;SDS011;14852;51.910;8.878;2023-03-01T06:04:07;6.57;;;4.35;;
26822;SDS011;14852;51.910;8.878;2023-03-01T06:06:33;6.13;;;3.95;;
26822;SDS011;14852;51.910;8.878;2023-03-01T06:09:02;6.75;;;4.40;;
26822;SDS011;14852;51.910;8.878;2023-03-01T06:11:29;5.85;;;4.43;;
26822;SDS011;14852;51.910;8.878;2023-03-01T06:13:55;5.63;;;4.25;;
26822;SDS011;14852;51.910;8.878;2023-03-01T06:16:20;7.15;;;4.10;;
26822;SDS011;14852;51.910;8.878;2023-03-01T06:18:46;7.53;;;5.20;;
26822;SDS011;14852;51.910;8.878;2023-03-01T06:21:12;5.90;;;4.30;;
26822;SDS011;14852;51.910;8.878;2023-03-01T06:23:38;11.68;;;5.18;;
26822;SDS011;14852;51.910;8.878;2023-03-01T06:26:05;5.97;;;4.07;;
26822;SDS011;14852;51.910;8.878;2023-03-01T06:28:32;8.07;;;4.60;;
26822;SDS011;14852;51.910;8.878;2023-03-01T06:30:58;6.65;;;3.90;;
26822;SDS011;14852;51.910;8.878;2023-03-01T06:33:24;9.77;;;4.70;;
26822;SDS011;14852;51.910;8.878;2023-03-01T06:35:50;7.47;;;4.93;;
26822;SDS011;14852;51.910;8.878;2023-03-01T06:38:19;8.07;;;5.00;;
26822;SDS011;14852;51.910;8.878;2023-03-01T06:40:44;9.52;;;6.05;;
26822;SDS011;14852;51.910;8.878;2023-03-01T06:43:16;10.18;;;6.22;;
26822;SDS011;14852;51.910;8.878;2023-03-01T06:45:42;9.90;;;6.20;;
26822;SDS011;14852;51.910;8.878;2023-03-01T06:48:08;11.23;;;6.63;;
26822;SDS011;14852;51.910;8.878;2023-03-01T06:50:34;10.30;;;6.95;;
26822;SDS011;14852;51.910;8.878;2023-03-01T06:53:00;10.88;;;7.60;;
26822;SDS011;14852;51.910;8.878;2023-03-01T06:55:27;10.68;;;7.07;;
26822;SDS011;14852;51.910;8.878;2023-03-01T06:57:54;12.70;;;7.45;;
26822;SDS011;14852;51.910;8.878;2023-03-01T07:00:24;12.13;;;8.57;;
26822;SDS011;14852;51.910;8.878;2023-03-01T07:02:50;12.13;;;7.80;;
26822;SDS011;14852;51.910;8.878;2023-03-01T07:05:17;9.43;;;7.28;;
26822;SDS011;14852;51.910;8.878;2023-03-01T07:07:42;10.70;;;7.65;;
26822;SDS011;14852;51.910;8.878;2023-03-01T07:10:09;11.48;;;7.32;;
26822;SDS011;14852;51.910;8.878;2023-03-01T07:12:36;9.07;;;6.65;;
26822;SDS011;14852;51.910;8.878;2023-03-01T07:15:02;13.48;;;9.38;;
26822;SDS011;14852;51.910;8.878;2023-03-01T07:17:28;15.18;;;8.90;;
26822;SDS011;14852;51.910;8.878;2023-03-01T07:19:54;12.35;;;8.60;;
26822;SDS011;14852;51.910;8.878;2023-03-01T07:22:20;13.77;;;8.80;;
26822;SDS011;14852;51.910;8.878;2023-03-01T07:24:45;11.10;;;7.20;;
26822;SDS011;14852;51.910;8.878;2023-03-01T07:27:11;10.82;;;7.93;;
26822;SDS011;14852;51.910;8.878;2023-03-01T07:29:37;11.27;;;7.95;;
26822;SDS011;14852;51.910;8.878;2023-03-01T07:32:04;12.40;;;8.63;;
26822;SDS011;14852;51.910;8.878;2023-03-01T07:34:31;12.55;;;9.10;;
26822;SDS011;14852;51.910;8.878;2023-03-01T07:36:57;12.90;;;8.57;;
26822;SDS011;14852;51.910;8.878;2023-03-01T07:39:23;14.77;;;8.52;;
26822;SDS011;14852;51.910;8.878;2023-03-01T07:41:49;12.98;;;8.27;;
26822;SDS011;14852;51.910;8.878;2023-03-01T07:44:20;10.20;;;8.07;;
26822;SDS011;14852;51.910;8.878;2023-03-01T07:46:45;10.68;;;7.85;;
26822;SDS011;14852;51.910;8.878;2023-03-01T07:49:11;7.93;;;7.13;;
26822;SDS011;14852;51.910;8.878;2023-03-01T07:51:37;10.98;;;7.68;;
26822;SDS011;14852;51.910;8.878;2023-03-01T07:54:03;9.93;;;8.13;;
26822;SDS011;14852;51.910;8.878;2023-03-01T07:56:29;7.93;;;7.07;;
26822;SDS011;14852;51.910;8.878;2023-03-01T07:58:54;8.52;;;7.00;;
26822;SDS011;14852;51.910;8.878;2023-03-01T08:01:21;10.70;;;8.20;;
26822;SDS011;14852;51.910;8.878;2023-03-01T08:03:47;9.30;;;7.43;;
26822;SDS011;14852;51.910;8.878;2023-03-01T08:06:14;9.88;;;7.57;;
26822;SDS011;14852;51.910;8.878;2023-03-01T08:08:41;9.10;;;7.20;;
26822;SDS011;14852;51.910;8.878;2023-03-01T08:11:09;11.00;;;6.85;;
26822;SDS011;14852;51.910;8.878;2023-03-01T08:13:36;8.20;;;7.30;;
26822;SDS011;14852;51.910;8.878;2023-03-01T08:16:03;8.60;;;6.75;;
26822;SDS011;14852;51.910;8.878;2023-03-01T08:18:31;8.20;;;6.35;;
26822;SDS011;14852;51.910;8.878;2023-03-01T08:21:08;9.25;;;6.95;;
26822;SDS011;14852;51.910;8.878;2023-03-01T08:23:37;9.20;;;7.38;;
26822;SDS011;14852;51.910;8.878;2023-03-01T08:26:13;9.90;;;7.53;;
26822;SDS011;14852;51.910;8.878;2023-03-01T08:28:43;8.02;;;6.97;;
26822;SDS011;14852;51.910;8.878;2023-03-01T08:31:23;10.52;;;8.10;;
26822;SDS011;14852;51.910;8.878;2023-03-01T08:33:57;9.55;;;7.45;;
26822;SDS011;14852;51.910;8.878;2023-03-01T08:36:27;11.32;;;7.35;;
26822;SDS011;14852;51.910;8.878;2023-03-01T08:39:02;8.68;;;6.95;;
26822;SDS011;14852;51.910;8.878;2023-03-01T08:41:29;10.20;;;7.35;;
26822;SDS011;14852;51.910;8.878;2023-03-01T08:43:54;8.13;;;7.30;;
26822;SDS011;14852;51.910;8.878;2023-03-01T08:46:24;8.57;;;7.70;;
26822;SDS011;14852;51.910;8.878;2023-03-01T08:49:20;8.25;;;7.05;;
26822;SDS011;14852;51.910;8.878;2023-03-01T08:51:47;8.20;;;7.03;;
26822;SDS011;14852;51.910;8.878;2023-03-01T08:54:14;9.07;;;6.38;;
26822;SDS011;14852;51.910;8.878;2023-03-01T08:56:43;9.93;;;6.88;;
26822;SDS011;14852;51.910;8.878;2023-03-01T08:59:13;6.72;;;6.13;;
26822;SDS011;14852;51.910;8.878;2023-03-01T09:04:08;7.03;;;6.32;;
26822;SDS011;14852;51.910;8.878;2023-03-01T09:06:35;7.97;;;6.43;;
26822;SDS011;14852;51.910;8.878;2023-03-01T09:09:01;7.30;;;5.82;;
26822;SDS011;14852;51.910;8.878;2023-03-01T09:11:29;7.55;;;6.10;;
26822;SDS011;14852;51.910;8.878;2023-03-01T09:13:55;6.35;;;5.63;;
26822;SDS011;14852;51.910;8.878;2023-03-01T09:16:21;7.35;;;5.60;;
26822;SDS011;14852;51.910;8.878;2023-03-01T09:18:49;5.72;;;5.15;;
26822;SDS011;14852;51.910;8.878;2023-03-01T09:21:18;6.25;;;4.75;;
26822;SDS011;14852;51.910;8.878;2023-03-01T09:23:46;6.30;;;5.38;;
26822;SDS011;14852;51.910;8.878;2023-03-01T09:26:14;5.22;;;4.47;;
26822;SDS011;14852;51.910;8.878;2023-03-01T09:28:46;5.90;;;4.88;;
26822;SDS011;14852;51.910;8.878;2023-03-01T09:31:15;6.35;;;4.20;;
26822;SDS011;14852;51.910;8.878;2023-03-01T09:33:44;6.00;;;4.78;;
26822;SDS011;14852;51.910;8.878;2023-03-01T09:36:13;5.55;;;4.80;;
26822;SDS011;14852;51.910;8.878;2023-03-01T09:38:43;6.70;;;4.53;;
26822;SDS011;14852;51.910;8.878;2023-03-01T09:41:35;7.47;;;5.43;;
26822;SDS011;14852;51.910;8.878;2023-03-01T09:47:08;6.82;;;5.00;;
26822;SDS011;14852;51.910;8.878;2023-03-01T09:49:45;5.75;;;4.35;;
26822;SDS011;14852;51.910;8.878;2023-03-01T09:52:52;7.60;;;4.82;;
26822;SDS011;14852;51.910;8.878;2023-03-01T09:55:39;6.75;;;4.88;;
26822;SDS011;14852;51.910;8.878;2023-03-01T10:01:35;7.82;;;4.70;;
26822;SDS011;14852;51.910;8.878;2023-03-01T10:04:27;7.85;;;5.07;;
26822;SDS011;14852;51.910;8.878;2023-03-01T10:10:28;6.18;;;4.95;;
26822;SDS011;14852;51.910;8.878;2023-03-01T10:13:03;6.68;;;5.18;;
26822;SDS011;14852;51.910;8.878;2023-03-01T10:15:44;6.75;;;4.43;;
26822;SDS011;14852;51.910;8.878;2023-03-01T10:18:29;5.78;;;4.82;;
26822;SDS011;14852;51.910;8.878;2023-03-01T10:21:02;6.80;;;5.30;;
26822;SDS011;14852;51.910;8.878;2023-03-01T10:23:32;5.22;;;4.28;;
26822;SDS011;14852;51.910;8.878;2023-03-01T10:26:09;6.18;;;4.57;;
26822;SDS011;14852;51.910;8.878;2023-03-01T10:29:04;5.82;;;4.32;;
26822;SDS011;14852;51.910;8.878;2023-03-01T10:31:40;5.23;;;4.73;;
26822;SDS011;14852;51.910;8.878;2023-03-01T10:34:20;4.82;;;4.13;;
26822;SDS011;14852;51.910;8.878;2023-03-01T10:37:01;5.03;;;4.05;;
26822;SDS011;14852;51.910;8.878;2023-03-01T10:39:55;5.50;;;4.13;;
26822;SDS011;14852;51.910;8.878;2023-03-01T10:42:46;6.35;;;4.85;;
26822;SDS011;14852;51.910;8.878;2023-03-01T10:45:34;8.18;;;4.55;;
26822;SDS011;14852;51.910;8.878;2023-03-01T10:50:43;7.32;;;4.63;;
26822;SDS011;14852;51.910;8.878;2023-03-01T10:53:20;8.18;;;5.10;;
26822;SDS011;14852;51.910;8.878;2023-03-01T10:58:41;7.38;;;4.53;;
26822;SDS011;14852;51.910;8.878;2023-03-01T11:01:26;5.85;;;4.97;;
26822;SDS011;14852;51.910;8.878;2023-03-01T11:06:32;7.88;;;5.25;;
26822;SDS011;14852;51.910;8.878;2023-03-01T11:09:15;6.00;;;4.40;;
26822;SDS011;14852;51.910;8.878;2023-03-01T11:11:54;6.97;;;5.10;;
26822;SDS011;14852;51.910;8.878;2023-03-01T11:14:22;5.88;;;5.15;;
26822;SDS011;14852;51.910;8.878;2023-03-01T11:17:04;6.95;;;4.57;;
26822;SDS011;14852;51.910;8.878;2023-03-01T11:19:40;8.30;;;5.15;;
26822;SDS011;14852;51.910;8.878;2023-03-01T11:22:13;5.50;;;3.95;;
26822;SDS011;14852;51.910;8.878;2023-03-01T11:27:23;8.63;;;4.80;;
26822;SDS011;14852;51.910;8.878;2023-03-01T11:35:42;7.45;;;4.05;;
26822;SDS011;14852;51.910;8.878;2023-03-01T11:38:27;5.95;;;4.25;;
26822;SDS011;14852;51.910;8.878;2023-03-01T11:40:59;6.32;;;4.20;;
26822;SDS011;14852;51.910;8.878;2023-03-01T11:52:44;5.07;;;3.97;;
26822;SDS011;14852;51.910;8.878;2023-03-01T11:58:52;7.07;;;4.75;;
26822;SDS011;14852;51.910;8.878;2023-03-01T12:01:51;6.72;;;3.80;;
26822;SDS011;14852;51.910;8.878;2023-03-01T12:07:33;5.60;;;4.20;;
26822;SDS011;14852;51.910;8.878;2023-03-01T12:10:27;8.05;;;4.90;;
26822;SDS011;14852;51.910;8.878;2023-03-01T12:13:05;6.03;;;4.53;;
26822;SDS011;14852;51.910;8.878;2023-03-01T12:15:49;8.05;;;4.55;;
26822;SDS011;14852;51.910;8.878;2023-03-01T12:18:47;6.50;;;4.25;;
26822;SDS011;14852;51.910;8.878;2023-03-01T12:21:41;6.28;;;4.53;;
26822;SDS011;14852;51.910;8.878;2023-03-01T12:24:32;5.63;;;4.43;;
26822;SDS011;14852;51.910;8.878;2023-03-01T12:30:22;6.22;;;4.35;;
26822;SDS011;14852;51.910;8.878;2023-03-01T12:36:22;4.80;;;3.90;;
26822;SDS011;14852;51.910;8.878;2023-03-01T12:42:57;6.15;;;4.95;;
26822;SDS011;14852;51.910;8.878;2023-03-01T12:51:19;8.32;;;5.18;;
26822;SDS011;14852;51.910;8.878;2023-03-01T12:53:53;7.20;;;5.03;;
26822;SDS011;14852;51.910;8.878;2023-03-01T12:56:25;6.13;;;4.03;;
26822;SDS011;14852;51.910;8.878;2023-03-01T13:10:58;7.90;;;4.90;;
26822;SDS011;14852;51.910;8.878;2023-03-01T13:13:29;6.20;;;4.75;;
26822;SDS011;14852;51.910;8.878;2023-03-01T13:15:56;6.80;;;4.45;;
26822;SDS011;14852;51.910;8.878;2023-03-01T13:18:42;6.43;;;4.35;;
26822;SDS011;14852;51.910;8.878;2023-03-01T13:21:08;6.30;;;4.30;;
26822;SDS011;14852;51.910;8.878;2023-03-01T13:23:35;6.53;;;4.65;;
26822;SDS011;14852;51.910;8.878;2023-03-01T13:26:11;7.70;;;4.30;;
26822;SDS011;14852;51.910;8.878;2023-03-01T13:31:10;7.53;;;4.72;;
26822;SDS011;14852;51.910;8.878;2023-03-01T13:33:48;6.90;;;5.38;;
26822;SDS011;14852;51.910;8.878;2023-03-01T13:36:45;7.65;;;4.78;;
26822;SDS011;14852;51.910;8.878;2023-03-01T13:39:26;7.35;;;5.15;;
26822;SDS011;14852;51.910;8.878;2023-03-01T13:41:57;7.15;;;4.32;;
26822;SDS011;14852;51.910;8.878;2023-03-01T13:49:44;6.68;;;4.88;;
26822;SDS011;14852;51.910;8.878;2023-03-01T13:52:39;10.27;;;6.10;;
26822;SDS011;14852;51.910;8.878;2023-03-01T14:00:43;9.60;;;4.45;;
26822;SDS011;14852;51.910;8.878;2023-03-01T14:03:16;8.00;;;5.13;;
26822;SDS011;14852;51.910;8.878;2023-03-01T14:08:34;6.50;;;4.85;;
26822;SDS011;14852;51.910;8.878;2023-03-01T14:17:17;9.20;;;6.10;;
26822;SDS011;14852;51.910;8.878;2023-03-01T14:19:57;6.85;;;4.90;;
26822;SDS011;14852;51.910;8.878;2023-03-01T14:22:33;6.20;;;4.95;;
26822;SDS011;14852;51.910;8.878;2023-03-01T14:25:02;6.78;;;5.05;;
26822;SDS011;14852;51.910;8.878;2023-03-01T14:27:52;8.88;;;4.95;;
26822;SDS011;14852;51.910;8.878;2023-03-01T14:30:34;9.98;;;4.82;;
26822;SDS011;14852;51.910;8.878;2023-03-01T14:33:16;4.90;;;3.85;;
26822;SDS011;14852;51.910;8.878;2023-03-01T14:38:37;5.93;;;4.72;;
26822;SDS011;14852;51.910;8.878;2023-03-01T14:41:10;7.70;;;5.20;;
26822;SDS011;14852;51.910;8.878;2023-03-01T14:43:49;8.38;;;5.45;;
26822;SDS011;14852;51.910;8.878;2023-03-01T14:46:25;7.07;;;4.93;;
26822;SDS011;14852;51.910;8.878;2023-03-01T14:49:03;8.07;;;5.60;;
26822;SDS011;14852;51.910;8.878;2023-03-01T14:51:34;6.20;;;4.53;;
26822;SDS011;14852;51.910;8.878;2023-03-01T14:57:20;6.60;;;5.00;;
26822;SDS011;14852;51.910;8.878;2023-03-01T14:59:52;6.22;;;3.88;;
26822;SDS011;14852;51.910;8.878;2023-03-01T15:02:24;8.00;;;5.13;;
26822;SDS011;14852;51.910;8.878;2023-03-01T15:04:54;7.50;;;5.25;;
26822;SDS011;14852;51.910;8.878;2023-03-01T15:07:22;7.85;;;4.90;;
26822;SDS011;14852;51.910;8.878;2023-03-01T15:09:54;5.78;;;4.40;;
26822;SDS011;14852;51.910;8.878;2023-03-01T15:14:52;7.00;;;4.60;;
26822;SDS011;14852;51.910;8.878;2023-03-01T15:17:21;7.10;;;4.90;;
26822;SDS011;14852;51.910;8.878;2023-03-01T15:20:04;6.13;;;4.55;;
26822;SDS011;14852;51.910;8.878;2023-03-01T15:22:45;5.78;;;3.90;;
26822;SDS011;14852;51.910;8.878;2023-03-01T15:25:21;7.75;;;4.72;;
26822;SDS011;14852;51.910;8.878;2023-03-01T15:27:53;5.00;;;4.40;;
26822;SDS011;14852;51.910;8.878;2023-03-01T15:30:25;7.53;;;4.20;;
26822;SDS011;14852;51.910;8.878;2023-03-01T15:33:15;8.07;;;4.78;;
26822;SDS011;14852;51.910;8.878;2023-03-01T15:35:52;8.13;;;4.40;;
26822;SDS011;14852;51.910;8.878;2023-03-01T15:38:34;6.93;;;4.18;;
26822;SDS011;14852;51.910;8.878;2023-03-01T15:41:37;6.28;;;4.15;;
26822;SDS011;14852;51.910;8.878;2023-03-01T15:44:16;6.05;;;4.10;;
26822;SDS011;14852;51.910;8.878;2023-03-01T15:46:50;6.05;;;4.43;;
26822;SDS011;14852;51.910;8.878;2023-03-01T15:52:17;8.02;;;4.75;;
26822;SDS011;14852;51.910;8.878;2023-03-01T15:54:54;6.10;;;4.10;;
26822;SDS011;14852;51.910;8.878;2023-03-01T15:57:25;6.10;;;3.83;;
26822;SDS011;14852;51.910;8.878;2023-03-01T15:59:51;6.63;;;3.78;;
26822;SDS011;14852;51.910;8.878;2023-03-01T16:02:17;5.38;;;4.22;;
26822;SDS011;14852;51.910;8.878;2023-03-01T16:04:45;6.57;;;4.32;;
26822;SDS011;14852;51.910;8.878;2023-03-01T16:07:13;6.18;;;3.55;;
26822;SDS011;14852;51.910;8.878;2023-03-01T16:09:39;6.55;;;4.18;;
26822;SDS011;14852;51.910;8.878;2023-03-01T16:12:05;8.30;;;5.93;;
26822;SDS011;14852;51.910;8.878;2023-03-01T16:14:39;6.28;;;3.90;;
26822;SDS011;14852;51.910;8.878;2023-03-01T16:17:05;11.90;;;5.32;;
26822;SDS011;14852;51.910;8.878;2023-03-01T16:19:30;7.65;;;4.30;;
26822;SDS011;14852;51.910;8.878;2023-03-01T16:21:56;5.68;;;4.13;;
26822;SDS011;14852;51.910;8.878;2023-03-01T16:24:22;6.28;;;4.65;;
26822;SDS011;14852;51.910;8.878;2023-03-01T16:26:48;8.80;;;5.97;;
26822;SDS011;14852;51.910;8.878;2023-03-01T16:29:13;6.65;;;4.72;;
26822;SDS011;14852;51.910;8.878;2023-03-01T16:31:40;8.20;;;4.60;;
26822;SDS011;14852;51.910;8.878;2023-03-01T16:34:06;6.40;;;4.10;;
26822;SDS011;14852;51.910;8.878;2023-03-01T16:36:32;8.80;;;5.60;;
26822;SDS011;14852;51.910;8.878;2023-03-01T16:38:58;8.00;;;4.43;;
26822;SDS011;14852;51.910;8.878;2023-03-01T16:41:25;8.43;;;4.75;;
26822;SDS011;14852;51.910;8.878;2023-03-01T16:43:52;8.20;;;4.10;;
26822;SDS011;14852;51.910;8.878;2023-03-01T16:46:19;6.25;;;4.30;;
26822;SDS011;14852;51.910;8.878;2023-03-01T16:48:48;6.55;;;4.25;;
26822;SDS011;14852;51.910;8.878;2023-03-01T16:51:15;6.70;;;4.38;;
26822;SDS011;14852;51.910;8.878;2023-03-01T16:53:41;9.18;;;6.30;;
26822;SDS011;14852;51.910;8.878;2023-03-01T16:56:07;5.07;;;4.45;;
26822;SDS011;14852;51.910;8.878;2023-03-01T16:58:36;5.70;;;3.63;;
26822;SDS011;14852;51.910;8.878;2023-03-01T17:01:03;6.55;;;4.68;;
26822;SDS011;14852;51.910;8.878;2023-03-01T17:03:44;7.78;;;5.32;;
26822;SDS011;14852;51.910;8.878;2023-03-01T17:06:13;7.97;;;5.82;;
26822;SDS011;14852;51.910;8.878;2023-03-01T17:08:42;8.88;;;5.05;;